createdAt,value
2019-03-28T00:02:28.169Z,15.18
2019-03-28T00:05:04.309Z,15.88
2019-03-28T00:07:33.165Z,15.68
2019-03-28T00:10:08.181Z,16.73
2019-03-28T00:12:37.064Z,15.70
2019-03-28T00:15:08.198Z,16.12
2019-03-28T00:17:43.599Z,15.53
2019-03-28T00:20:12.485Z,15.93
2019-03-28T00:22:49.842Z,15.28
2019-03-28T00:25:19.874Z,15.38
2019-03-28T00:28:02.471Z,14.53
2019-03-28T00:30:37.998Z,15.35
2019-03-28T00:33:13.773Z,15.95
2019-03-28T00:35:42.596Z,15.45
2019-03-28T00:38:11.433Z,14.55
2019-03-28T00:40:47.746Z,16.32
2019-03-28T00:43:16.629Z,15.85
2019-03-28T00:45:51.802Z,16.15
2019-03-28T00:48:20.733Z,16.62
2019-03-28T00:50:49.619Z,14.65
2019-03-28T00:53:25.648Z,15.58
2019-03-28T00:55:54.557Z,15.55
2019-03-28T00:58:29.685Z,16.65
2019-03-28T01:00:58.542Z,14.35
2019-03-28T01:03:27.381Z,14.65
2019-03-28T01:06:06.080Z,14.10
2019-03-28T01:08:34.930Z,14.45
2019-03-28T01:11:10.374Z,11.75
2019-03-28T01:13:39.239Z,12.85
2019-03-28T01:16:08.057Z,14.00
2019-03-28T01:18:44.009Z,13.22
2019-03-28T01:21:12.903Z,12.63
2019-03-28T01:23:41.801Z,15.32
2019-03-28T01:26:18.281Z,14.85
2019-03-28T01:28:54.471Z,14.13
2019-03-28T01:31:36.805Z,14.93
2019-03-28T01:34:05.636Z,14.07
2019-03-28T01:36:34.459Z,15.05
2019-03-28T01:39:11.248Z,14.55
2019-03-28T01:41:40.146Z,15.38
2019-03-28T01:44:17.279Z,14.53
2019-03-28T01:46:46.393Z,15.58
2019-03-28T01:49:15.415Z,16.42
2019-03-28T01:51:50.849Z,18.27
2019-03-28T01:54:19.615Z,16.90
2019-03-28T01:56:55.026Z,15.93
2019-03-28T01:59:24.942Z,16.52
2019-03-28T02:01:53.767Z,16.65
2019-03-28T02:04:29.320Z,17.10
2019-03-28T02:06:59.172Z,16.62
2019-03-28T02:09:35.026Z,16.23
2019-03-28T02:12:03.862Z,16.00
2019-03-28T02:14:32.838Z,17.98
2019-03-28T02:17:08.666Z,17.05
2019-03-28T02:19:37.571Z,17.17
2019-03-28T02:22:12.890Z,16.57
2019-03-28T02:24:41.752Z,18.12
2019-03-28T02:27:23.021Z,16.62
2019-03-28T02:29:47.769Z,17.52
2019-03-28T02:32:30.412Z,17.65
2019-03-28T02:35:05.774Z,16.97
2019-03-28T02:37:34.647Z,19.60
2019-03-28T02:40:04.262Z,20.12
2019-03-28T02:42:39.673Z,19.75
2019-03-28T02:45:08.904Z,21.35
2019-03-28T02:47:44.718Z,23.30
2019-03-28T02:50:13.581Z,23.52
2019-03-28T02:52:42.420Z,23.20
2019-03-28T02:55:17.593Z,25.40
2019-03-28T02:57:46.451Z,24.52
2019-03-28T03:00:22.758Z,25.17
2019-03-28T03:02:51.656Z,24.70
2019-03-28T03:05:20.496Z,24.40
2019-03-28T03:07:56.354Z,21.73
2019-03-28T03:10:25.212Z,24.15
2019-03-28T03:13:00.774Z,23.77
2019-03-28T03:15:30.098Z,24.30
2019-03-28T03:17:59.285Z,26.82
2019-03-28T03:20:35.321Z,23.77
2019-03-28T03:23:04.188Z,23.73
2019-03-28T03:25:39.614Z,20.15
2019-03-28T03:28:08.471Z,23.07
2019-03-28T03:30:57.114Z,23.18
2019-03-28T03:33:32.450Z,21.55
2019-03-28T03:36:07.634Z,21.68
2019-03-28T03:38:36.549Z,21.25
2019-03-28T03:41:05.717Z,19.60
2019-03-28T03:43:41.228Z,20.57
2019-03-28T03:46:10.048Z,23.18
2019-03-28T03:48:45.870Z,22.80
2019-03-28T03:51:14.910Z,21.40
2019-03-28T03:53:43.882Z,20.57
2019-03-28T03:56:19.997Z,22.13
2019-03-28T03:58:48.822Z,24.52
2019-03-28T04:01:25.498Z,25.10
2019-03-28T04:03:55.748Z,24.02
2019-03-28T04:06:24.828Z,25.60
2019-03-28T04:09:00.841Z,24.45
2019-03-28T04:11:29.646Z,25.35
2019-03-28T04:14:05.497Z,21.60
2019-03-28T04:16:34.354Z,25.48
2019-03-28T04:19:03.271Z,25.55
2019-03-28T04:21:38.616Z,26.15
2019-03-28T04:24:07.743Z,26.15
2019-03-28T04:26:43.873Z,29.50
2019-03-28T04:29:12.745Z,31.02
2019-03-28T04:31:54.535Z,27.00
2019-03-28T04:34:30.193Z,29.32
2019-03-28T04:36:59.041Z,28.75
2019-03-28T04:39:34.023Z,28.77
2019-03-28T04:42:03.509Z,28.65
2019-03-28T04:44:39.690Z,29.15
2019-03-28T04:47:14.164Z,30.25
2019-03-28T04:49:41.003Z,29.98
2019-03-28T04:52:16.335Z,28.73
2019-03-28T04:54:45.204Z,27.20
2019-03-28T04:57:20.820Z,26.73
2019-03-28T04:59:49.723Z,25.70
2019-03-28T05:02:18.621Z,27.27
2019-03-28T05:04:53.641Z,26.82
2019-03-28T05:07:22.470Z,25.88
2019-03-28T05:09:58.164Z,27.13
2019-03-28T05:12:27.078Z,25.37
2019-03-28T05:14:55.937Z,27.20
2019-03-28T05:17:31.846Z,26.20
2019-03-28T05:20:00.748Z,26.57
2019-03-28T05:22:35.693Z,25.80
2019-03-28T05:25:06.934Z,25.80
2019-03-28T05:27:35.816Z,26.80
2019-03-28T05:30:14.675Z,26.93
2019-03-28T05:32:49.971Z,26.55
2019-03-28T05:35:31.690Z,26.27
2019-03-28T05:38:00.617Z,26.50
2019-03-28T05:40:29.534Z,27.07
2019-03-28T05:43:04.806Z,28.20
2019-03-28T05:45:33.751Z,27.27
2019-03-28T05:48:09.379Z,28.32
2019-03-28T05:50:38.215Z,27.10
2019-03-28T05:53:07.072Z,30.80
2019-03-28T05:55:42.798Z,27.13
2019-03-28T05:58:11.641Z,26.17
2019-03-28T06:00:51.166Z,29.18
2019-03-28T06:03:18.041Z,25.70
2019-03-28T06:05:46.872Z,26.80
2019-03-28T06:08:21.982Z,26.42
2019-03-28T06:10:50.818Z,24.07
2019-03-28T06:13:26.396Z,23.47
2019-03-28T06:15:55.644Z,23.02
2019-03-28T06:18:24.467Z,22.62
2019-03-28T06:20:59.725Z,21.93
2019-03-28T06:23:28.478Z,22.00
2019-03-28T06:26:03.750Z,20.82
2019-03-28T06:28:32.587Z,19.07
2019-03-28T06:31:01.425Z,20.48
2019-03-28T06:33:38.487Z,21.10
2019-03-28T06:36:06.927Z,18.23
2019-03-28T06:38:50.228Z,19.12
2019-03-28T06:41:19.122Z,20.35
2019-03-28T06:43:54.230Z,18.85
2019-03-28T06:46:23.148Z,18.82
2019-03-28T06:48:51.946Z,18.27
2019-03-28T06:51:26.946Z,18.87
2019-03-28T06:53:57.131Z,17.80
2019-03-28T06:56:32.425Z,18.02
2019-03-28T06:59:01.274Z,18.12
2019-03-28T07:01:30.126Z,18.05
2019-03-28T07:04:05.540Z,15.90
2019-03-28T07:06:34.377Z,16.55
2019-03-28T07:09:09.569Z,14.95
2019-03-28T07:11:38.429Z,16.07
2019-03-28T07:14:07.277Z,14.80
2019-03-28T07:16:42.795Z,14.90
2019-03-28T07:19:11.653Z,15.30
2019-03-28T07:21:47.416Z,15.00
2019-03-28T07:24:16.240Z,14.68
2019-03-28T07:26:45.085Z,13.88
2019-03-28T07:29:20.912Z,14.50
2019-03-28T07:31:49.765Z,14.13
2019-03-28T07:34:31.681Z,14.50
2019-03-28T07:37:07.362Z,12.93
2019-03-28T07:39:49.935Z,15.25
2019-03-28T07:42:18.744Z,14.00
2019-03-28T07:44:47.913Z,14.25
2019-03-28T07:47:23.821Z,13.85
2019-03-28T07:49:52.721Z,13.38
2019-03-28T07:52:29.039Z,14.73
2019-03-28T07:54:57.866Z,13.32
2019-03-28T07:57:26.741Z,12.23
2019-03-28T08:00:04.534Z,12.88
2019-03-28T08:02:33.502Z,10.88
2019-03-28T08:05:09.006Z,12.00
2019-03-28T08:07:44.911Z,10.13
2019-03-28T08:10:09.207Z,11.78
2019-03-28T08:12:44.693Z,10.63
2019-03-28T08:15:14.184Z,11.12
2019-03-28T08:17:49.948Z,10.40
2019-03-28T08:23:19.142Z,9.03
2019-03-28T08:25:47.900Z,9.20
2019-03-28T08:28:16.717Z,9.13
2019-03-28T08:30:51.825Z,10.00
2019-03-28T08:33:20.679Z,9.35
2019-03-28T08:35:57.090Z,9.23
2019-03-28T08:38:27.237Z,9.60
2019-03-28T08:41:09.567Z,8.18
2019-03-28T08:43:38.460Z,7.35
2019-03-28T08:46:08.894Z,6.33
2019-03-28T08:48:44.392Z,6.75
2019-03-28T08:51:13.448Z,6.40
2019-03-28T08:53:48.729Z,7.08
2019-03-28T08:56:17.597Z,6.33
2019-03-28T08:58:46.522Z,5.85
2019-03-28T09:01:22.552Z,6.72
2019-03-28T09:04:13.647Z,5.70
2019-03-28T09:06:49.684Z,5.75
2019-03-28T09:09:21.157Z,6.12
2019-03-28T09:12:17.824Z,5.40
2019-03-28T09:17:46.372Z,4.87
2019-03-28T09:20:15.325Z,5.20
2019-03-28T09:22:57.757Z,5.35
2019-03-28T09:25:33.602Z,5.65
2019-03-28T09:28:09.531Z,4.95
2019-03-28T09:30:48.562Z,4.90
2019-03-28T09:33:11.198Z,5.40
2019-03-28T09:35:46.439Z,4.83
2019-03-28T09:38:15.553Z,4.83
2019-03-28T09:40:50.670Z,5.95
2019-03-28T09:43:19.516Z,5.00
2019-03-28T09:45:48.487Z,5.25
2019-03-28T09:51:22.553Z,4.37
2019-03-28T09:53:57.805Z,5.42
2019-03-28T09:56:33.353Z,4.80
2019-03-28T09:59:08.547Z,5.10
2019-03-28T10:01:46.234Z,5.85
2019-03-28T10:04:21.047Z,5.40
2019-03-28T10:06:49.652Z,5.62
2019-03-28T10:09:25.619Z,6.20
2019-03-28T10:12:00.757Z,6.03
2019-03-28T10:14:29.601Z,8.83
2019-03-28T10:17:05.568Z,7.12
2019-03-28T10:19:34.437Z,6.35
2019-03-28T10:22:09.815Z,6.10
2019-03-28T10:24:51.628Z,6.92
2019-03-28T10:27:20.101Z,7.30
2019-03-28T10:29:55.300Z,6.80
2019-03-28T10:32:23.805Z,7.90
2019-03-28T10:34:52.744Z,9.40
2019-03-28T10:37:27.952Z,8.30
2019-03-28T10:39:56.781Z,9.03
2019-03-28T10:42:32.560Z,7.92
2019-03-28T10:45:01.340Z,8.68
2019-03-28T10:47:30.181Z,9.25
2019-03-28T10:50:05.376Z,9.18
2019-03-28T10:52:34.137Z,8.38
2019-03-28T10:55:09.936Z,8.90
2019-03-28T10:57:38.366Z,8.93
2019-03-28T11:00:23.415Z,10.00
2019-03-28T11:02:49.033Z,10.68
2019-03-28T11:05:18.050Z,11.12
2019-03-28T11:08:00.124Z,10.25
2019-03-28T11:10:30.587Z,9.83
2019-03-28T11:12:59.630Z,9.33
2019-03-28T11:15:35.055Z,10.82
2019-03-28T11:18:03.993Z,11.33
2019-03-28T11:20:40.126Z,10.98
2019-03-28T11:23:15.968Z,10.53
2019-03-28T11:25:57.475Z,10.63
2019-03-28T11:28:26.224Z,11.03
2019-03-28T11:30:54.773Z,11.43
2019-03-28T11:33:29.525Z,10.80
2019-03-28T11:35:57.996Z,8.63
2019-03-28T11:38:32.919Z,10.68
2019-03-28T11:41:01.442Z,9.88
2019-03-28T11:43:29.989Z,10.45
2019-03-28T11:46:04.677Z,9.75
2019-03-28T11:48:33.322Z,9.40
2019-03-28T11:51:08.228Z,9.50
2019-03-28T11:53:36.724Z,9.23
2019-03-28T11:56:05.279Z,9.23
2019-03-28T11:58:40.221Z,8.65
2019-03-28T12:01:08.797Z,7.58
2019-03-28T12:03:44.181Z,7.75
2019-03-28T12:06:18.872Z,7.80
2019-03-28T12:08:47.359Z,8.85
2019-03-28T12:11:22.661Z,8.30
2019-03-28T12:13:51.171Z,7.92
2019-03-28T12:16:26.211Z,7.53
2019-03-28T12:18:54.680Z,7.03
2019-03-28T12:21:23.195Z,6.85
2019-03-28T12:23:58.570Z,7.20
2019-03-28T12:26:27.171Z,7.30
2019-03-28T12:29:05.707Z,6.58
2019-03-28T12:31:33.428Z,7.45
2019-03-28T12:34:02.123Z,7.53
2019-03-28T12:36:37.728Z,7.90
2019-03-28T12:39:06.532Z,7.22
2019-03-28T12:41:41.164Z,7.70
2019-03-28T12:44:09.657Z,7.62
2019-03-28T12:46:38.140Z,7.75
2019-03-28T12:49:13.412Z,7.15
2019-03-28T12:51:43.765Z,8.30
2019-03-28T12:54:19.038Z,7.72
2019-03-28T12:56:47.543Z,7.95
2019-03-28T12:59:15.975Z,8.13
2019-03-28T13:01:51.192Z,8.33
2019-03-28T13:04:19.674Z,8.15
2019-03-28T13:06:54.825Z,8.95
2019-03-28T13:09:29.363Z,7.75
2019-03-28T13:11:57.866Z,8.53
2019-03-28T13:14:33.121Z,8.93
2019-03-28T13:17:01.617Z,9.18
2019-03-28T13:19:37.109Z,10.00
2019-03-28T13:22:05.606Z,9.15
2019-03-28T13:24:40.168Z,9.13
2019-03-28T13:27:21.811Z,8.70
2019-03-28T13:29:50.307Z,8.43
2019-03-28T13:32:26.022Z,8.60
2019-03-28T13:34:54.470Z,8.40
2019-03-28T13:37:22.961Z,7.65
2019-03-28T13:39:59.343Z,7.50
2019-03-28T13:42:28.067Z,7.58
2019-03-28T13:45:02.917Z,6.83
2019-03-28T13:47:31.449Z,6.45
2019-03-28T13:49:59.877Z,6.40
2019-03-28T13:52:34.892Z,6.37
2019-03-28T13:55:03.407Z,7.25
2019-03-28T13:57:38.742Z,6.67
2019-03-28T14:00:07.913Z,7.85
2019-03-28T14:02:36.491Z,7.10
2019-03-28T14:05:13.296Z,7.30
2019-03-28T14:07:41.859Z,7.95
2019-03-28T14:10:23.413Z,7.22
2019-03-28T14:12:58.272Z,6.87
2019-03-28T14:15:26.746Z,6.17
2019-03-28T14:17:55.260Z,4.95
2019-03-28T14:20:30.872Z,5.58
2019-03-28T14:22:59.338Z,4.87
2019-03-28T14:25:34.364Z,4.67
2019-03-28T14:28:09.363Z,4.30
2019-03-28T14:30:51.697Z,4.25
2019-03-28T14:33:20.189Z,4.83
2019-03-28T14:35:48.745Z,4.53
2019-03-28T14:38:23.757Z,3.85
2019-03-28T14:40:52.289Z,4.03
2019-03-28T14:43:27.039Z,4.40
2019-03-28T14:45:55.516Z,4.58
2019-03-28T14:48:24.006Z,4.35
2019-03-28T14:50:58.997Z,4.67
2019-03-28T14:53:28.713Z,4.78
2019-03-28T14:56:04.644Z,4.60
2019-03-28T14:58:33.444Z,4.83
2019-03-28T15:01:01.912Z,4.62
2019-03-28T15:03:37.501Z,5.33
2019-03-28T15:06:06.078Z,5.70
2019-03-28T15:08:41.025Z,5.50
2019-03-28T15:11:09.439Z,5.28
2019-03-28T15:13:40.373Z,5.03
2019-03-28T15:16:15.286Z,4.55
2019-03-28T15:18:43.756Z,4.50
2019-03-28T15:21:19.013Z,4.35
2019-03-28T15:23:47.479Z,4.60
2019-03-28T15:26:16.507Z,4.60
2019-03-28T15:28:51.712Z,5.55
2019-03-28T15:31:21.622Z,5.28
2019-03-28T15:34:04.746Z,5.08
2019-03-28T15:36:33.599Z,5.08
2019-03-28T15:39:02.500Z,5.20
2019-03-28T15:41:38.184Z,5.08
2019-03-28T15:44:07.010Z,5.22
2019-03-28T15:46:43.081Z,5.35
2019-03-28T15:49:11.937Z,5.37
2019-03-28T15:51:40.841Z,5.28
2019-03-28T15:54:16.177Z,5.47
2019-03-28T15:56:45.032Z,5.30
2019-03-28T15:59:20.401Z,5.22
2019-03-28T16:01:49.250Z,5.75
2019-03-28T16:04:18.103Z,5.45
2019-03-28T16:06:53.006Z,6.33
2019-03-28T16:09:21.902Z,5.47
2019-03-28T16:12:02.803Z,5.80
2019-03-28T16:14:28.312Z,6.25
2019-03-28T16:16:57.100Z,7.03
2019-03-28T16:19:35.092Z,6.60
2019-03-28T16:22:05.202Z,6.78
2019-03-28T16:24:40.252Z,6.87
2019-03-28T16:27:09.087Z,6.65
2019-03-28T16:29:44.866Z,6.75
2019-03-28T16:32:20.458Z,7.03
2019-03-28T16:34:49.269Z,7.87
2019-03-28T16:37:31.494Z,8.03
2019-03-28T16:40:00.621Z,8.20
2019-03-28T16:42:29.479Z,9.73
2019-03-28T16:45:05.049Z,8.58
2019-03-28T16:47:33.969Z,10.63
2019-03-28T16:50:09.372Z,10.08
2019-03-28T16:52:38.237Z,11.12
2019-03-28T16:55:07.197Z,11.63
2019-03-28T16:57:43.332Z,11.83
2019-03-28T17:00:14.095Z,10.93
2019-03-28T17:02:49.536Z,11.20
2019-03-28T17:05:18.358Z,11.25
2019-03-28T17:07:48.188Z,11.40
2019-03-28T17:10:47.696Z,11.38
2019-03-28T17:13:16.828Z,11.65
2019-03-28T17:15:52.696Z,10.98
2019-03-28T17:18:21.550Z,11.63
2019-03-28T17:20:50.508Z,11.50
2019-03-28T17:23:25.775Z,11.53
2019-03-28T17:25:54.721Z,12.07
2019-03-28T17:28:37.128Z,11.88
2019-03-28T17:31:12.417Z,11.18
2019-03-28T17:33:48.305Z,11.73
2019-03-28T17:36:17.174Z,13.32
2019-03-28T17:38:46.018Z,11.50
2019-03-28T17:41:21.291Z,10.95
2019-03-28T17:43:50.124Z,11.50
2019-03-28T17:46:25.150Z,11.73
2019-03-28T17:48:57.400Z,13.32
2019-03-28T17:51:24.881Z,11.00
2019-03-28T17:54:00.041Z,11.28
2019-03-28T17:56:28.880Z,11.00
2019-03-28T17:59:04.045Z,11.40
2019-03-28T18:01:33.046Z,11.25
2019-03-28T18:04:23.682Z,11.10
2019-03-28T18:07:07.436Z,11.33
2019-03-28T18:09:46.608Z,10.65
2019-03-28T18:12:47.278Z,11.33
2019-03-28T18:15:17.599Z,13.18
2019-03-28T18:17:46.458Z,12.33
2019-03-28T18:20:22.348Z,11.18
2019-03-28T18:22:51.214Z,11.15
2019-03-28T18:25:30.026Z,12.58
2019-03-28T18:27:57.398Z,12.80
2019-03-28T18:30:39.357Z,13.28
2019-03-28T18:33:14.620Z,12.23
2019-03-28T18:35:43.491Z,13.70
2019-03-28T18:38:20.106Z,12.55
2019-03-28T18:40:49.145Z,12.80
2019-03-28T18:43:25.773Z,13.98
2019-03-28T18:45:54.707Z,12.98
2019-03-28T18:48:29.591Z,12.73
2019-03-28T18:51:01.146Z,12.07
2019-03-28T18:53:30.129Z,13.38
2019-03-28T18:56:05.596Z,12.58
2019-03-28T18:58:34.501Z,12.70
2019-03-28T19:01:03.483Z,12.65
2019-03-28T19:03:39.288Z,13.13
2019-03-28T19:06:08.145Z,13.03
2019-03-28T19:08:43.591Z,12.03
2019-03-28T19:11:12.473Z,11.78
2019-03-28T19:13:50.271Z,11.45
2019-03-28T19:16:25.717Z,11.78
2019-03-28T19:18:54.612Z,11.22
2019-03-28T19:21:30.432Z,10.70
2019-03-28T19:23:59.254Z,10.65
2019-03-28T19:26:28.182Z,10.40
2019-03-28T19:29:03.193Z,10.28
2019-03-28T19:31:38.810Z,10.35
2019-03-28T19:34:21.420Z,11.33
2019-03-28T19:36:51.080Z,11.33
2019-03-28T19:39:36.629Z,10.65
2019-03-28T19:42:05.681Z,10.98
2019-03-28T19:44:34.940Z,10.48
2019-03-28T19:47:09.933Z,11.05
2019-03-28T19:49:38.806Z,10.72
2019-03-28T19:52:14.290Z,10.60
2019-03-28T19:54:43.185Z,11.05
2019-03-28T19:57:13.089Z,10.65
2019-03-28T19:59:48.332Z,10.63
2019-03-28T20:02:17.205Z,10.32
2019-03-28T20:04:52.445Z,11.60
2019-03-28T20:07:22.241Z,11.60
2019-03-28T20:09:51.763Z,11.05
2019-03-28T20:12:27.301Z,10.72
2019-03-28T20:14:56.158Z,12.55
2019-03-28T20:17:31.912Z,11.08
2019-03-28T20:20:00.756Z,10.25
2019-03-28T20:22:30.772Z,10.20
2019-03-28T20:25:07.025Z,11.22
2019-03-28T20:27:36.208Z,11.90
2019-03-28T20:30:13.614Z,12.37
2019-03-28T20:32:48.574Z,11.75
2019-03-28T20:35:30.753Z,11.08
2019-03-28T20:37:59.606Z,10.90
2019-03-28T20:40:28.440Z,11.33
2019-03-28T20:43:03.724Z,12.35
2019-03-28T20:45:32.601Z,11.43
2019-03-28T20:48:08.227Z,11.65
2019-03-28T20:50:37.089Z,10.23
2019-03-28T20:53:06.021Z,11.80
2019-03-28T20:55:41.316Z,11.18
2019-03-28T20:58:10.172Z,11.85
2019-03-28T21:00:54.380Z,12.05
2019-03-28T21:03:23.231Z,12.10
2019-03-28T21:05:52.067Z,11.00
2019-03-28T21:08:28.001Z,12.37
2019-03-28T21:10:56.869Z,12.75
2019-03-28T21:13:31.933Z,12.28
2019-03-28T21:16:00.766Z,11.18
2019-03-28T21:18:29.617Z,11.50
2019-03-28T21:21:05.145Z,11.63
2019-03-28T21:23:34.056Z,11.68
2019-03-28T21:26:09.771Z,11.25
2019-03-28T21:28:47.045Z,11.70
2019-03-28T21:31:09.109Z,10.75
2019-03-28T21:33:44.092Z,11.75
2019-03-28T21:36:12.912Z,12.15
2019-03-28T21:38:55.107Z,12.05
2019-03-28T21:41:23.962Z,12.63
2019-03-28T21:43:52.760Z,12.25
2019-03-28T21:46:28.670Z,12.93
2019-03-28T21:48:57.513Z,11.38
2019-03-28T21:51:33.524Z,13.08
2019-03-28T21:54:04.871Z,12.45
2019-03-28T21:56:32.880Z,12.33
2019-03-28T21:59:08.473Z,12.00
2019-03-28T22:01:37.310Z,13.22
2019-03-28T22:04:12.689Z,13.10
2019-03-28T22:06:43.077Z,13.53
2019-03-28T22:09:11.991Z,13.08
2019-03-28T22:11:47.609Z,13.45
2019-03-28T22:14:23.187Z,13.50
2019-03-28T22:16:59.188Z,13.18
2019-03-28T22:19:28.035Z,13.20
2019-03-28T22:21:56.873Z,13.83
2019-03-28T22:24:32.706Z,13.62
2019-03-28T22:27:01.668Z,12.78
2019-03-28T22:29:37.438Z,13.03
2019-03-28T22:32:06.258Z,12.75
2019-03-28T22:34:48.962Z,13.90
2019-03-28T22:37:24.270Z,12.13
2019-03-28T22:39:53.099Z,13.28
2019-03-28T22:42:28.729Z,11.45
2019-03-28T22:44:57.587Z,13.22
2019-03-28T22:47:35.657Z,12.98
2019-03-28T22:50:04.086Z,12.58
2019-03-28T22:52:32.928Z,11.35
2019-03-28T22:55:08.908Z,11.57
2019-03-28T22:57:37.720Z,12.70
2019-03-28T23:00:19.690Z,12.80
2019-03-28T23:02:48.517Z,12.33
2019-03-28T23:05:24.729Z,12.85
2019-03-28T23:07:53.649Z,13.05
2019-03-28T23:10:22.425Z,13.05
2019-03-28T23:12:58.280Z,12.53
2019-03-28T23:15:33.673Z,12.43
2019-03-28T23:18:08.604Z,12.23
2019-03-28T23:20:37.470Z,13.15
2019-03-28T23:23:06.304Z,12.63
2019-03-28T23:25:41.901Z,13.45
2019-03-28T23:28:10.728Z,11.57
2019-03-28T23:30:46.131Z,12.55
2019-03-28T23:33:21.410Z,12.55
2019-03-28T23:36:03.688Z,13.15
2019-03-28T23:38:32.549Z,11.63
2019-03-28T23:41:01.481Z,12.37
2019-03-28T23:43:37.522Z,11.65
2019-03-28T23:46:06.348Z,13.22
2019-03-28T23:48:41.668Z,12.65
2019-03-28T23:51:10.531Z,13.72
2019-03-28T23:53:39.385Z,13.28
2019-03-28T23:56:14.769Z,12.78
2019-03-28T23:58:43.588Z,12.20
